sensor_id;sensor_type;location;lat;lon;timestamp;temperature;humidity
29341;DHT22;16337;59.536;13.468;2023-02-26T00:00:29;-2.70;99.90
29341;DHT22;16337;59.536;13.468;2023-02-26T00:02:55;-2.70;99.90
29341;DHT22;16337;59.536;13.468;2023-02-26T00:05:20;-2.70;99.90
29341;DHT22;16337;59.536;13.468;2023-02-26T00:07:46;-2.70;99.90
29341;DHT22;16337;59.536;13.468;2023-02-26T00:10:13;-2.60;99.90
29341;DHT22;16337;59.536;13.468;2023-02-26T00:12:41;-2.70;99.90
29341;DHT22;16337;59.536;13.468;2023-02-26T00:15:10;-2.70;99.90
29341;DHT22;16337;59.536;13.468;2023-02-26T00:17:46;-2.70;99.90
29341;DHT22;16337;59.536;13.468;2023-02-26T00:20:14;-2.70;99.90
29341;DHT22;16337;59.536;13.468;2023-02-26T00:22:42;-2.70;99.90
29341;DHT22;16337;59.536;13.468;2023-02-26T00:25:08;-2.80;99.90
29341;DHT22;16337;59.536;13.468;2023-02-26T00:27:34;-2.80;99.90
29341;DHT22;16337;59.536;13.468;2023-02-26T00:30:03;-2.80;99.90
29341;DHT22;16337;59.536;13.468;2023-02-26T00:32:30;-2.80;99.90
29341;DHT22;16337;59.536;13.468;2023-02-26T00:34:56;-3.00;99.90
29341;DHT22;16337;59.536;13.468;2023-02-26T00:37:42;-2.90;99.90
29341;DHT22;16337;59.536;13.468;2023-02-26T00:42:39;-3.00;99.90
29341;DHT22;16337;59.536;13.468;2023-02-26T00:45:05;-3.00;99.90
29341;DHT22;16337;59.536;13.468;2023-02-26T00:47:42;-2.90;99.90
29341;DHT22;16337;59.536;13.468;2023-02-26T00:52:46;-2.80;99.90
29341;DHT22;16337;59.536;13.468;2023-02-26T00:55:15;-2.80;99.90
29341;DHT22;16337;59.536;13.468;2023-02-26T00:57:41;-2.80;99.90
29341;DHT22;16337;59.536;13.468;2023-02-26T01:00:07;-2.80;99.90
29341;DHT22;16337;59.536;13.468;2023-02-26T01:02:34;-2.80;99.90
29341;DHT22;16337;59.536;13.468;2023-02-26T01:05:00;-2.80;99.90
29341;DHT22;16337;59.536;13.468;2023-02-26T01:07:27;-2.80;99.90
29341;DHT22;16337;59.536;13.468;2023-02-26T01:09:54;-2.80;99.90
29341;DHT22;16337;59.536;13.468;2023-02-26T01:12:20;-2.80;99.90
29341;DHT22;16337;59.536;13.468;2023-02-26T01:14:46;-2.80;99.90
29341;DHT22;16337;59.536;13.468;2023-02-26T01:20:24;-2.80;99.90
29341;DHT22;16337;59.536;13.468;2023-02-26T01:22:54;-2.80;99.90
29341;DHT22;16337;59.536;13.468;2023-02-26T01:25:33;-2.90;99.90
29341;DHT22;16337;59.536;13.468;2023-02-26T01:28:01;-2.80;99.90
29341;DHT22;16337;59.536;13.468;2023-02-26T01:30:27;-2.90;99.90
29341;DHT22;16337;59.536;13.468;2023-02-26T01:35:39;-2.90;99.90
29341;DHT22;16337;59.536;13.468;2023-02-26T01:44:30;-2.90;99.90
29341;DHT22;16337;59.536;13.468;2023-02-26T01:50:26;-2.90;99.90
29341;DHT22;16337;59.536;13.468;2023-02-26T01:55:41;-3.00;99.90
29341;DHT22;16337;59.536;13.468;2023-02-26T01:58:08;-3.00;99.90
29341;DHT22;16337;59.536;13.468;2023-02-26T02:00:34;-3.00;99.90
29341;DHT22;16337;59.536;13.468;2023-02-26T02:03:01;-3.00;99.90
29341;DHT22;16337;59.536;13.468;2023-02-26T02:05:34;-3.10;99.90
29341;DHT22;16337;59.536;13.468;2023-02-26T02:08:04;-3.10;99.90
29341;DHT22;16337;59.536;13.468;2023-02-26T02:10:30;-3.10;99.90
29341;DHT22;16337;59.536;13.468;2023-02-26T02:13:09;-3.00;99.90
29341;DHT22;16337;59.536;13.468;2023-02-26T02:15:58;-3.00;99.90
29341;DHT22;16337;59.536;13.468;2023-02-26T02:24:27;-3.00;99.90
29341;DHT22;16337;59.536;13.468;2023-02-26T02:27:21;-3.10;99.90
29341;DHT22;16337;59.536;13.468;2023-02-26T02:32:38;-3.10;99.90
29341;DHT22;16337;59.536;13.468;2023-02-26T02:35:21;-3.10;99.90
29341;DHT22;16337;59.536;13.468;2023-02-26T02:38:00;-3.10;99.90
29341;DHT22;16337;59.536;13.468;2023-02-26T02:40:32;-3.20;99.90
29341;DHT22;16337;59.536;13.468;2023-02-26T02:43:12;-3.10;99.90
29341;DHT22;16337;59.536;13.468;2023-02-26T02:51:07;-3.00;99.90
29341;DHT22;16337;59.536;13.468;2023-02-26T02:53:56;-3.00;99.90
29341;DHT22;16337;59.536;13.468;2023-02-26T02:56:37;-3.10;99.90
29341;DHT22;16337;59.536;13.468;2023-02-26T02:59:10;-3.10;99.90
29341;DHT22;16337;59.536;13.468;2023-02-26T03:01:39;-3.00;99.90
29341;DHT22;16337;59.536;13.468;2023-02-26T03:04:08;-3.00;99.90
29341;DHT22;16337;59.536;13.468;2023-02-26T03:06:35;-3.00;99.90
29341;DHT22;16337;59.536;13.468;2023-02-26T03:09:02;-3.00;99.90
29341;DHT22;16337;59.536;13.468;2023-02-26T03:11:29;-2.90;99.90
29341;DHT22;16337;59.536;13.468;2023-02-26T03:13:56;-2.90;99.90
29341;DHT22;16337;59.536;13.468;2023-02-26T03:24:37;-2.90;99.90
29341;DHT22;16337;59.536;13.468;2023-02-26T03:30:11;-3.00;99.90
29341;DHT22;16337;59.536;13.468;2023-02-26T03:38:12;-2.90;99.90
29341;DHT22;16337;59.536;13.468;2023-02-26T03:40:43;-2.70;99.90
29341;DHT22;16337;59.536;13.468;2023-02-26T03:43:21;-2.70;99.90
29341;DHT22;16337;59.536;13.468;2023-02-26T03:45:50;-2.70;99.90
29341;DHT22;16337;59.536;13.468;2023-02-26T03:48:19;-2.80;99.90
29341;DHT22;16337;59.536;13.468;2023-02-26T03:50:50;-3.00;99.90
29341;DHT22;16337;59.536;13.468;2023-02-26T03:53:23;-3.10;99.90
29341;DHT22;16337;59.536;13.468;2023-02-26T03:58:37;-3.00;99.90
29341;DHT22;16337;59.536;13.468;2023-02-26T04:01:06;-3.00;99.90
29341;DHT22;16337;59.536;13.468;2023-02-26T04:03:48;-2.90;99.90
29341;DHT22;16337;59.536;13.468;2023-02-26T04:06:16;-2.90;99.90
29341;DHT22;16337;59.536;13.468;2023-02-26T04:08:42;-2.90;99.90
29341;DHT22;16337;59.536;13.468;2023-02-26T04:11:12;-2.90;99.90
29341;DHT22;16337;59.536;13.468;2023-02-26T04:13:39;-2.90;99.90
29341;DHT22;16337;59.536;13.468;2023-02-26T04:16:05;-2.90;99.90
29341;DHT22;16337;59.536;13.468;2023-02-26T04:18:31;-2.80;99.90
29341;DHT22;16337;59.536;13.468;2023-02-26T04:20:57;-2.80;99.90
29341;DHT22;16337;59.536;13.468;2023-02-26T04:23:22;-2.80;99.90
29341;DHT22;16337;59.536;13.468;2023-02-26T04:25:48;-2.80;99.90
29341;DHT22;16337;59.536;13.468;2023-02-26T04:28:14;-2.90;99.90
29341;DHT22;16337;59.536;13.468;2023-02-26T04:30:40;-2.90;99.90
29341;DHT22;16337;59.536;13.468;2023-02-26T04:33:05;-2.90;99.90
29341;DHT22;16337;59.536;13.468;2023-02-26T04:35:32;-2.80;99.90
29341;DHT22;16337;59.536;13.468;2023-02-26T04:37:58;-2.80;99.90
29341;DHT22;16337;59.536;13.468;2023-02-26T04:40:24;-2.80;99.90
29341;DHT22;16337;59.536;13.468;2023-02-26T04:42:50;-2.90;99.90
29341;DHT22;16337;59.536;13.468;2023-02-26T04:45:16;-2.90;99.90
29341;DHT22;16337;59.536;13.468;2023-02-26T04:47:42;-3.00;99.90
29341;DHT22;16337;59.536;13.468;2023-02-26T04:50:08;-3.10;99.90
29341;DHT22;16337;59.536;13.468;2023-02-26T04:52:34;-3.20;99.90
29341;DHT22;16337;59.536;13.468;2023-02-26T04:54:59;-3.20;99.90
29341;DHT22;16337;59.536;13.468;2023-02-26T04:57:25;-3.30;99.90
29341;DHT22;16337;59.536;13.468;2023-02-26T04:59:51;-3.20;99.90
29341;DHT22;16337;59.536;13.468;2023-02-26T05:02:17;-3.20;99.90
29341;DHT22;16337;59.536;13.468;2023-02-26T05:04:43;-3.30;99.90
29341;DHT22;16337;59.536;13.468;2023-02-26T05:07:09;-3.20;99.90
29341;DHT22;16337;59.536;13.468;2023-02-26T05:09:35;-3.30;99.90
29341;DHT22;16337;59.536;13.468;2023-02-26T05:12:00;-3.30;99.90
29341;DHT22;16337;59.536;13.468;2023-02-26T05:14:26;-3.30;99.90
29341;DHT22;16337;59.536;13.468;2023-02-26T05:16:52;-3.40;99.90
29341;DHT22;16337;59.536;13.468;2023-02-26T05:19:18;-3.60;99.90
29341;DHT22;16337;59.536;13.468;2023-02-26T05:21:43;-3.60;99.90
29341;DHT22;16337;59.536;13.468;2023-02-26T05:24:09;-3.60;99.90
29341;DHT22;16337;59.536;13.468;2023-02-26T05:26:35;-3.50;99.90
29341;DHT22;16337;59.536;13.468;2023-02-26T05:29:00;-3.50;99.90
29341;DHT22;16337;59.536;13.468;2023-02-26T05:31:27;-3.30;99.90
29341;DHT22;16337;59.536;13.468;2023-02-26T05:33:53;-3.40;99.90
29341;DHT22;16337;59.536;13.468;2023-02-26T05:36:18;-3.40;99.90
29341;DHT22;16337;59.536;13.468;2023-02-26T05:38:44;-3.50;99.90
29341;DHT22;16337;59.536;13.468;2023-02-26T05:41:10;-3.50;99.90
29341;DHT22;16337;59.536;13.468;2023-02-26T05:43:36;-3.40;99.90
29341;DHT22;16337;59.536;13.468;2023-02-26T05:46:01;-3.40;99.90
29341;DHT22;16337;59.536;13.468;2023-02-26T05:48:27;-3.50;99.90
29341;DHT22;16337;59.536;13.468;2023-02-26T05:50:53;-3.60;99.90
29341;DHT22;16337;59.536;13.468;2023-02-26T05:53:19;-3.60;99.90
29341;DHT22;16337;59.536;13.468;2023-02-26T05:55:45;-3.60;99.90
29341;DHT22;16337;59.536;13.468;2023-02-26T05:58:11;-3.70;99.90
29341;DHT22;16337;59.536;13.468;2023-02-26T06:00:37;-3.70;99.90
29341;DHT22;16337;59.536;13.468;2023-02-26T06:03:03;-3.80;99.90
29341;DHT22;16337;59.536;13.468;2023-02-26T06:05:29;-3.90;99.90
29341;DHT22;16337;59.536;13.468;2023-02-26T06:07:55;-4.00;99.90
29341;DHT22;16337;59.536;13.468;2023-02-26T06:10:21;-4.10;99.90
29341;DHT22;16337;59.536;13.468;2023-02-26T06:12:46;-4.00;99.90
29341;DHT22;16337;59.536;13.468;2023-02-26T06:15:12;-4.10;99.90
29341;DHT22;16337;59.536;13.468;2023-02-26T06:17:38;-4.10;99.90
29341;DHT22;16337;59.536;13.468;2023-02-26T06:20:05;-3.90;99.90
29341;DHT22;16337;59.536;13.468;2023-02-26T06:22:31;-3.70;99.90
29341;DHT22;16337;59.536;13.468;2023-02-26T06:24:57;-3.70;99.90
29341;DHT22;16337;59.536;13.468;2023-02-26T06:27:23;-3.60;99.90
29341;DHT22;16337;59.536;13.468;2023-02-26T06:29:49;-3.50;99.90
29341;DHT22;16337;59.536;13.468;2023-02-26T06:32:15;-3.60;99.90
29341;DHT22;16337;59.536;13.468;2023-02-26T06:34:41;-3.70;99.90
29341;DHT22;16337;59.536;13.468;2023-02-26T06:37:06;-3.70;99.90
29341;DHT22;16337;59.536;13.468;2023-02-26T06:39:32;-3.80;99.90
29341;DHT22;16337;59.536;13.468;2023-02-26T06:41:58;-3.60;99.90
29341;DHT22;16337;59.536;13.468;2023-02-26T06:44:24;-3.60;99.90
29341;DHT22;16337;59.536;13.468;2023-02-26T06:46:50;-3.50;99.90
29341;DHT22;16337;59.536;13.468;2023-02-26T06:49:16;-3.40;99.90
29341;DHT22;16337;59.536;13.468;2023-02-26T06:51:41;-3.30;99.90
29341;DHT22;16337;59.536;13.468;2023-02-26T06:54:07;-3.30;99.90
29341;DHT22;16337;59.536;13.468;2023-02-26T06:56:33;-3.20;99.90
29341;DHT22;16337;59.536;13.468;2023-02-26T06:58:59;-3.20;99.90
29341;DHT22;16337;59.536;13.468;2023-02-26T07:01:24;-3.10;99.90
29341;DHT22;16337;59.536;13.468;2023-02-26T07:03:50;-3.00;99.90
29341;DHT22;16337;59.536;13.468;2023-02-26T07:06:16;-3.00;99.90
29341;DHT22;16337;59.536;13.468;2023-02-26T07:08:42;-2.90;99.90
29341;DHT22;16337;59.536;13.468;2023-02-26T07:11:08;-2.90;99.90
29341;DHT22;16337;59.536;13.468;2023-02-26T07:13:36;-2.70;99.90
29341;DHT22;16337;59.536;13.468;2023-02-26T07:16:03;-2.70;99.90
29341;DHT22;16337;59.536;13.468;2023-02-26T07:18:37;-2.60;99.90
29341;DHT22;16337;59.536;13.468;2023-02-26T07:21:04;-2.50;99.90
29341;DHT22;16337;59.536;13.468;2023-02-26T07:23:30;-2.50;99.90
29341;DHT22;16337;59.536;13.468;2023-02-26T07:25:56;-2.50;99.90
29341;DHT22;16337;59.536;13.468;2023-02-26T07:28:23;-2.40;99.90
29341;DHT22;16337;59.536;13.468;2023-02-26T07:30:48;-2.20;99.90
29341;DHT22;16337;59.536;13.468;2023-02-26T07:33:14;-2.20;99.90
29341;DHT22;16337;59.536;13.468;2023-02-26T07:35:40;-2.00;99.90
29341;DHT22;16337;59.536;13.468;2023-02-26T07:38:06;-2.00;99.90
29341;DHT22;16337;59.536;13.468;2023-02-26T07:40:32;-1.90;99.90
29341;DHT22;16337;59.536;13.468;2023-02-26T07:42:58;-1.80;99.90
29341;DHT22;16337;59.536;13.468;2023-02-26T07:45:24;-1.70;99.90
29341;DHT22;16337;59.536;13.468;2023-02-26T07:47:50;-1.70;99.90
29341;DHT22;16337;59.536;13.468;2023-02-26T07:50:17;-1.70;99.90
29341;DHT22;16337;59.536;13.468;2023-02-26T07:52:43;-1.50;99.90
29341;DHT22;16337;59.536;13.468;2023-02-26T07:55:11;-1.40;99.90
29341;DHT22;16337;59.536;13.468;2023-02-26T07:57:36;-1.30;99.90
29341;DHT22;16337;59.536;13.468;2023-02-26T08:00:04;-1.30;99.90
29341;DHT22;16337;59.536;13.468;2023-02-26T08:02:31;-1.20;99.90
29341;DHT22;16337;59.536;13.468;2023-02-26T08:04:57;-1.10;99.90
29341;DHT22;16337;59.536;13.468;2023-02-26T08:07:22;-1.00;99.90
29341;DHT22;16337;59.536;13.468;2023-02-26T08:09:48;-0.90;99.90
29341;DHT22;16337;59.536;13.468;2023-02-26T08:12:14;-0.90;99.90
29341;DHT22;16337;59.536;13.468;2023-02-26T08:14:40;-0.80;99.90
29341;DHT22;16337;59.536;13.468;2023-02-26T08:17:07;-0.70;99.90
29341;DHT22;16337;59.536;13.468;2023-02-26T08:19:33;-0.50;99.90
29341;DHT22;16337;59.536;13.468;2023-02-26T08:22:00;-0.40;99.90
29341;DHT22;16337;59.536;13.468;2023-02-26T08:24:25;-0.30;99.90
29341;DHT22;16337;59.536;13.468;2023-02-26T08:26:51;-0.20;99.90
29341;DHT22;16337;59.536;13.468;2023-02-26T08:29:17;0.00;99.90
29341;DHT22;16337;59.536;13.468;2023-02-26T08:31:43;0.10;99.90
29341;DHT22;16337;59.536;13.468;2023-02-26T08:34:09;0.20;99.90
29341;DHT22;16337;59.536;13.468;2023-02-26T08:36:34;0.30;99.90
29341;DHT22;16337;59.536;13.468;2023-02-26T08:39:00;0.50;99.90
29341;DHT22;16337;59.536;13.468;2023-02-26T08:41:26;0.60;99.90
29341;DHT22;16337;59.536;13.468;2023-02-26T08:43:54;0.70;99.90
29341;DHT22;16337;59.536;13.468;2023-02-26T08:46:20;0.80;99.90
29341;DHT22;16337;59.536;13.468;2023-02-26T08:48:46;1.00;99.90
29341;DHT22;16337;59.536;13.468;2023-02-26T08:51:12;1.10;99.90
29341;DHT22;16337;59.536;13.468;2023-02-26T08:53:38;1.20;99.90
29341;DHT22;16337;59.536;13.468;2023-02-26T08:56:05;1.40;99.90
29341;DHT22;16337;59.536;13.468;2023-02-26T08:58:31;1.50;99.90
29341;DHT22;16337;59.536;13.468;2023-02-26T09:00:56;1.60;99.90
29341;DHT22;16337;59.536;13.468;2023-02-26T09:03:22;1.80;99.90
29341;DHT22;16337;59.536;13.468;2023-02-26T09:05:50;2.00;99.90
29341;DHT22;16337;59.536;13.468;2023-02-26T09:08:15;2.20;99.90
29341;DHT22;16337;59.536;13.468;2023-02-26T09:10:42;2.30;99.90
29341;DHT22;16337;59.536;13.468;2023-02-26T09:13:08;2.40;99.90
29341;DHT22;16337;59.536;13.468;2023-02-26T09:15:34;2.60;99.90
29341;DHT22;16337;59.536;13.468;2023-02-26T09:18:02;2.80;99.90
29341;DHT22;16337;59.536;13.468;2023-02-26T09:20:28;3.00;99.90
29341;DHT22;16337;59.536;13.468;2023-02-26T09:22:54;3.20;99.90
29341;DHT22;16337;59.536;13.468;2023-02-26T09:25:20;3.40;99.90
29341;DHT22;16337;59.536;13.468;2023-02-26T09:27:45;3.60;99.90
29341;DHT22;16337;59.536;13.468;2023-02-26T09:30:12;3.90;99.90
29341;DHT22;16337;59.536;13.468;2023-02-26T09:32:38;4.10;99.90
29341;DHT22;16337;59.536;13.468;2023-02-26T09:35:04;4.20;99.90
29341;DHT22;16337;59.536;13.468;2023-02-26T09:37:30;4.10;99.90
29341;DHT22;16337;59.536;13.468;2023-02-26T09:39:56;4.20;99.90
29341;DHT22;16337;59.536;13.468;2023-02-26T09:42:40;4.40;99.90
29341;DHT22;16337;59.536;13.468;2023-02-26T09:45:26;4.60;99.90
29341;DHT22;16337;59.536;13.468;2023-02-26T09:47:55;4.80;99.90
29341;DHT22;16337;59.536;13.468;2023-02-26T09:50:25;5.10;99.90
29341;DHT22;16337;59.536;13.468;2023-02-26T09:53:06;5.20;99.90
29341;DHT22;16337;59.536;13.468;2023-02-26T09:55:41;5.50;99.90
29341;DHT22;16337;59.536;13.468;2023-02-26T09:58:22;5.60;99.90
29341;DHT22;16337;59.536;13.468;2023-02-26T10:06:37;6.00;99.90
29341;DHT22;16337;59.536;13.468;2023-02-26T10:14:51;6.50;99.90
29341;DHT22;16337;59.536;13.468;2023-02-26T10:17:25;6.70;99.90
29341;DHT22;16337;59.536;13.468;2023-02-26T10:19:58;6.50;99.90
29341;DHT22;16337;59.536;13.468;2023-02-26T10:25:15;6.20;99.90
29341;DHT22;16337;59.536;13.468;2023-02-26T10:30:36;6.40;99.90
29341;DHT22;16337;59.536;13.468;2023-02-26T10:35:38;6.50;99.90
29341;DHT22;16337;59.536;13.468;2023-02-26T10:38:16;6.70;99.90
29341;DHT22;16337;59.536;13.468;2023-02-26T10:41:04;6.90;99.90
29341;DHT22;16337;59.536;13.468;2023-02-26T10:51:43;7.50;99.90
29341;DHT22;16337;59.536;13.468;2023-02-26T10:54:34;7.70;99.90
29341;DHT22;16337;59.536;13.468;2023-02-26T10:57:01;7.60;99.90
29341;DHT22;16337;59.536;13.468;2023-02-26T10:59:30;7.10;99.90
29341;DHT22;16337;59.536;13.468;2023-02-26T11:01:56;7.40;99.90
29341;DHT22;16337;59.536;13.468;2023-02-26T11:04:25;7.10;99.90
29341;DHT22;16337;59.536;13.468;2023-02-26T11:06:59;6.90;99.90
29341;DHT22;16337;59.536;13.468;2023-02-26T11:09:42;6.80;99.90
29341;DHT22;16337;59.536;13.468;2023-02-26T11:12:15;7.10;99.90
29341;DHT22;16337;59.536;13.468;2023-02-26T11:14:44;7.50;99.90
29341;DHT22;16337;59.536;13.468;2023-02-26T11:17:18;7.60;99.90
29341;DHT22;16337;59.536;13.468;2023-02-26T11:19:52;7.40;99.90
29341;DHT22;16337;59.536;13.468;2023-02-26T11:22:21;7.70;99.90
29341;DHT22;16337;59.536;13.468;2023-02-26T11:24:50;7.70;99.90
29341;DHT22;16337;59.536;13.468;2023-02-26T11:27:25;7.70;99.90
29341;DHT22;16337;59.536;13.468;2023-02-26T11:29:57;7.60;99.90
29341;DHT22;16337;59.536;13.468;2023-02-26T11:32:36;7.20;99.90
29341;DHT22;16337;59.536;13.468;2023-02-26T11:35:06;7.20;99.90
29341;DHT22;16337;59.536;13.468;2023-02-26T11:37:38;7.40;99.90
29341;DHT22;16337;59.536;13.468;2023-02-26T11:40:17;7.60;99.90
29341;DHT22;16337;59.536;13.468;2023-02-26T11:43:15;7.60;99.90
29341;DHT22;16337;59.536;13.468;2023-02-26T11:45:51;7.10;99.90
29341;DHT22;16337;59.536;13.468;2023-02-26T11:48:27;6.80;99.90
29341;DHT22;16337;59.536;13.468;2023-02-26T11:50:59;6.60;99.90
29341;DHT22;16337;59.536;13.468;2023-02-26T11:53:36;6.70;99.90
29341;DHT22;16337;59.536;13.468;2023-02-26T11:56:14;6.70;99.90
29341;DHT22;16337;59.536;13.468;2023-02-26T11:58:45;7.00;99.90
29341;DHT22;16337;59.536;13.468;2023-02-26T12:01:12;6.90;99.90
29341;DHT22;16337;59.536;13.468;2023-02-26T12:03:42;6.80;99.90
29341;DHT22;16337;59.536;13.468;2023-02-26T12:06:19;6.60;99.90
29341;DHT22;16337;59.536;13.468;2023-02-26T12:08:46;6.20;99.90
29341;DHT22;16337;59.536;13.468;2023-02-26T12:28:26;6.50;99.90
29341;DHT22;16337;59.536;13.468;2023-02-26T12:34:06;6.60;99.90
29341;DHT22;16337;59.536;13.468;2023-02-26T12:42:17;6.60;99.90
29341;DHT22;16337;59.536;13.468;2023-02-26T12:45:11;6.90;99.90
29341;DHT22;16337;59.536;13.468;2023-02-26T12:51:04;6.80;99.90
29341;DHT22;16337;59.536;13.468;2023-02-26T12:53:20;6.50;99.90
29341;DHT22;16337;59.536;13.468;2023-02-26T13:04:23;6.50;99.90
29341;DHT22;16337;59.536;13.468;2023-02-26T13:10:18;6.80;99.90
29341;DHT22;16337;59.536;13.468;2023-02-26T13:13:04;6.60;99.90
29341;DHT22;16337;59.536;13.468;2023-02-26T13:15:47;6.30;99.90
29341;DHT22;16337;59.536;13.468;2023-02-26T13:18:42;6.20;99.90
29341;DHT22;16337;59.536;13.468;2023-02-26T13:21:23;5.80;99.90
29341;DHT22;16337;59.536;13.468;2023-02-26T13:24:42;5.50;99.90
29341;DHT22;16337;59.536;13.468;2023-02-26T13:26:41;5.40;99.90
29341;DHT22;16337;59.536;13.468;2023-02-26T13:34:58;5.10;99.90
29341;DHT22;16337;59.536;13.468;2023-02-26T13:37:38;5.20;99.90
29341;DHT22;16337;59.536;13.468;2023-02-26T13:46:13;5.00;99.90
29341;DHT22;16337;59.536;13.468;2023-02-26T13:51:30;4.70;99.90
29341;DHT22;16337;59.536;13.468;2023-02-26T13:54:05;4.50;99.90
29341;DHT22;16337;59.536;13.468;2023-02-26T14:01:34;4.30;99.90
29341;DHT22;16337;59.536;13.468;2023-02-26T14:06:47;4.30;99.90
29341;DHT22;16337;59.536;13.468;2023-02-26T14:17:39;4.40;99.90
29341;DHT22;16337;59.536;13.468;2023-02-26T14:20:08;4.50;99.90
29341;DHT22;16337;59.536;13.468;2023-02-26T14:22:42;4.40;99.90
29341;DHT22;16337;59.536;13.468;2023-02-26T14:25:18;4.40;99.90
29341;DHT22;16337;59.536;13.468;2023-02-26T14:27:47;4.30;99.90
29341;DHT22;16337;59.536;13.468;2023-02-26T14:30:32;4.40;99.90
29341;DHT22;16337;59.536;13.468;2023-02-26T14:35:46;4.40;99.90
29341;DHT22;16337;59.536;13.468;2023-02-26T14:38:36;4.40;99.90
29341;DHT22;16337;59.536;13.468;2023-02-26T14:44:18;4.30;99.90
29341;DHT22;16337;59.536;13.468;2023-02-26T14:46:46;4.20;99.90
29341;DHT22;16337;59.536;13.468;2023-02-26T14:49:25;4.10;99.90
29341;DHT22;16337;59.536;13.468;2023-02-26T14:52:25;4.10;99.90
29341;DHT22;16337;59.536;13.468;2023-02-26T15:00:51;3.90;99.90
29341;DHT22;16337;59.536;13.468;2023-02-26T15:03:42;3.80;99.90
29341;DHT22;16337;59.536;13.468;2023-02-26T15:06:29;3.80;99.90
29341;DHT22;16337;59.536;13.468;2023-02-26T15:17:15;3.70;99.90
29341;DHT22;16337;59.536;13.468;2023-02-26T15:22:47;3.70;99.90
29341;DHT22;16337;59.536;13.468;2023-02-26T15:25:30;3.60;99.90
29341;DHT22;16337;59.536;13.468;2023-02-26T15:27:56;3.60;99.90
29341;DHT22;16337;59.536;13.468;2023-02-26T15:30:23;3.50;99.90
29341;DHT22;16337;59.536;13.468;2023-02-26T15:32:55;3.50;99.90
29341;DHT22;16337;59.536;13.468;2023-02-26T15:35:22;3.40;99.90
29341;DHT22;16337;59.536;13.468;2023-02-26T15:37:56;3.30;99.90
29341;DHT22;16337;59.536;13.468;2023-02-26T15:40:24;3.20;99.90
29341;DHT22;16337;59.536;13.468;2023-02-26T15:42:54;3.10;99.90
29341;DHT22;16337;59.536;13.468;2023-02-26T15:45:47;3.10;99.90
29341;DHT22;16337;59.536;13.468;2023-02-26T15:48:19;3.10;99.90
29341;DHT22;16337;59.536;13.468;2023-02-26T15:50:47;3.00;99.90
29341;DHT22;16337;59.536;13.468;2023-02-26T15:53:20;3.00;99.90
29341;DHT22;16337;59.536;13.468;2023-02-26T15:55:54;2.90;99.90
29341;DHT22;16337;59.536;13.468;2023-02-26T15:58:38;2.80;99.90
29341;DHT22;16337;59.536;13.468;2023-02-26T16:01:05;2.70;99.90
29341;DHT22;16337;59.536;13.468;2023-02-26T16:03:36;2.60;99.90
29341;DHT22;16337;59.536;13.468;2023-02-26T16:06:02;2.60;99.90
29341;DHT22;16337;59.536;13.468;2023-02-26T16:08:28;2.50;99.90
29341;DHT22;16337;59.536;13.468;2023-02-26T16:10:57;2.40;99.90
29341;DHT22;16337;59.536;13.468;2023-02-26T16:13:32;2.40;99.90
29341;DHT22;16337;59.536;13.468;2023-02-26T16:16:09;2.30;99.90
29341;DHT22;16337;59.536;13.468;2023-02-26T16:18:39;2.10;99.90
29341;DHT22;16337;59.536;13.468;2023-02-26T16:21:07;1.90;99.90
29341;DHT22;16337;59.536;13.468;2023-02-26T16:23:45;1.70;99.90
29341;DHT22;16337;59.536;13.468;2023-02-26T16:26:20;1.50;99.90
29341;DHT22;16337;59.536;13.468;2023-02-26T16:28:55;1.40;99.90
29341;DHT22;16337;59.536;13.468;2023-02-26T16:31:24;1.20;99.90
29341;DHT22;16337;59.536;13.468;2023-02-26T16:34:01;1.10;99.90
29341;DHT22;16337;59.536;13.468;2023-02-26T16:36:36;1.10;99.90
29341;DHT22;16337;59.536;13.468;2023-02-26T16:39:22;1.00;99.90
29341;DHT22;16337;59.536;13.468;2023-02-26T16:42:31;1.00;99.90
29341;DHT22;16337;59.536;13.468;2023-02-26T16:45:00;1.10;99.90
29341;DHT22;16337;59.536;13.468;2023-02-26T16:47:28;1.10;99.90
29341;DHT22;16337;59.536;13.468;2023-02-26T16:49:56;1.10;99.90
29341;DHT22;16337;59.536;13.468;2023-02-26T16:52:24;1.10;99.90
29341;DHT22;16337;59.536;13.468;2023-02-26T16:54:55;1.10;99.90
29341;DHT22;16337;59.536;13.468;2023-02-26T16:57:26;1.10;99.90
29341;DHT22;16337;59.536;13.468;2023-02-26T17:00:00;1.10;99.90
29341;DHT22;16337;59.536;13.468;2023-02-26T17:02:32;1.00;99.90
29341;DHT22;16337;59.536;13.468;2023-02-26T17:05:02;1.00;99.90
29341;DHT22;16337;59.536;13.468;2023-02-26T17:07:34;1.00;99.90
29341;DHT22;16337;59.536;13.468;2023-02-26T17:10:15;0.90;99.90
29341;DHT22;16337;59.536;13.468;2023-02-26T17:12:52;0.90;99.90
29341;DHT22;16337;59.536;13.468;2023-02-26T17:15:29;0.90;99.90
29341;DHT22;16337;59.536;13.468;2023-02-26T17:17:55;0.90;99.90
29341;DHT22;16337;59.536;13.468;2023-02-26T17:20:26;0.90;99.90
29341;DHT22;16337;59.536;13.468;2023-02-26T17:22:54;0.90;99.90
29341;DHT22;16337;59.536;13.468;2023-02-26T17:25:22;0.90;99.90
29341;DHT22;16337;59.536;13.468;2023-02-26T17:27:50;0.90;99.90
29341;DHT22;16337;59.536;13.468;2023-02-26T17:30:21;0.80;99.90
29341;DHT22;16337;59.536;13.468;2023-02-26T17:32:48;0.80;99.90
29341;DHT22;16337;59.536;13.468;2023-02-26T17:35:16;0.70;99.90
29341;DHT22;16337;59.536;13.468;2023-02-26T17:37:42;0.70;99.90
29341;DHT22;16337;59.536;13.468;2023-02-26T17:40:22;0.70;99.90
29341;DHT22;16337;59.536;13.468;2023-02-26T17:42:49;0.70;99.90
29341;DHT22;16337;59.536;13.468;2023-02-26T17:45:16;0.60;99.90
29341;DHT22;16337;59.536;13.468;2023-02-26T17:47:43;0.60;99.90
29341;DHT22;16337;59.536;13.468;2023-02-26T17:50:36;0.50;99.90
29341;DHT22;16337;59.536;13.468;2023-02-26T17:53:04;0.50;99.90
29341;DHT22;16337;59.536;13.468;2023-02-26T17:55:38;0.40;99.90
29341;DHT22;16337;59.536;13.468;2023-02-26T17:58:15;0.40;99.90
29341;DHT22;16337;59.536;13.468;2023-02-26T18:00:41;0.40;99.90
29341;DHT22;16337;59.536;13.468;2023-02-26T18:03:11;0.40;99.90
29341;DHT22;16337;59.536;13.468;2023-02-26T18:05:37;0.40;99.90
29341;DHT22;16337;59.536;13.468;2023-02-26T18:08:05;0.40;99.90
29341;DHT22;16337;59.536;13.468;2023-02-26T18:10:31;0.40;99.90
29341;DHT22;16337;59.536;13.468;2023-02-26T18:12:58;0.40;99.90
29341;DHT22;16337;59.536;13.468;2023-02-26T18:15:25;0.40;99.90
29341;DHT22;16337;59.536;13.468;2023-02-26T18:17:51;0.40;99.90
29341;DHT22;16337;59.536;13.468;2023-02-26T18:20:18;0.40;99.90
29341;DHT22;16337;59.536;13.468;2023-02-26T18:22:47;0.40;99.90
29341;DHT22;16337;59.536;13.468;2023-02-26T18:25:13;0.50;99.90
29341;DHT22;16337;59.536;13.468;2023-02-26T18:27:40;0.50;99.90
29341;DHT22;16337;59.536;13.468;2023-02-26T18:30:13;0.50;99.90
29341;DHT22;16337;59.536;13.468;2023-02-26T18:32:41;0.50;99.90
29341;DHT22;16337;59.536;13.468;2023-02-26T18:35:07;0.40;99.90
29341;DHT22;16337;59.536;13.468;2023-02-26T18:37:32;0.50;99.90
29341;DHT22;16337;59.536;13.468;2023-02-26T18:39:59;0.50;99.90